sensor_id;sensor_type;location;lat;lon;timestamp;P1;durP1;ratioP1;P2;durP2;ratioP2
51296;SDS011;37380;45.186;9.792;2023-04-03T00:00:12;14.90;;;8.43;;
51296;SDS011;37380;45.186;9.792;2023-04-03T00:02:40;9.18;;;8.27;;
51296;SDS011;37380;45.186;9.792;2023-04-03T00:05:07;9.35;;;7.57;;
51296;SDS011;37380;45.186;9.792;2023-04-03T00:07:34;10.13;;;7.82;;
51296;SDS011;37380;45.186;9.792;2023-04-03T00:10:02;9.80;;;8.75;;
51296;SDS011;37380;45.186;9.792;2023-04-03T00:12:29;10.18;;;8.77;;
51296;SDS011;37380;45.186;9.792;2023-04-03T00:14:56;18.90;;;9.45;;
51296;SDS011;37380;45.186;9.792;2023-04-03T00:17:23;11.80;;;9.20;;
51296;SDS011;37380;45.186;9.792;2023-04-03T00:19:50;14.13;;;8.32;;
51296;SDS011;37380;45.186;9.792;2023-04-03T00:22:17;10.95;;;9.10;;
51296;SDS011;37380;45.186;9.792;2023-04-03T00:24:44;11.60;;;8.85;;
51296;SDS011;37380;45.186;9.792;2023-04-03T00:27:11;10.63;;;8.55;;
51296;SDS011;37380;45.186;9.792;2023-04-03T00:29:38;12.15;;;8.82;;
51296;SDS011;37380;45.186;9.792;2023-04-03T00:32:05;12.15;;;9.90;;
51296;SDS011;37380;45.186;9.792;2023-04-03T00:34:33;8.38;;;7.65;;
51296;SDS011;37380;45.186;9.792;2023-04-03T00:37:00;8.95;;;8.07;;
51296;SDS011;37380;45.186;9.792;2023-04-03T00:39:27;11.00;;;9.63;;
51296;SDS011;37380;45.186;9.792;2023-04-03T00:41:54;10.55;;;9.10;;
51296;SDS011;37380;45.186;9.792;2023-04-03T00:44:22;11.75;;;9.45;;
51296;SDS011;37380;45.186;9.792;2023-04-03T00:46:55;21.25;;;9.68;;
51296;SDS011;37380;45.186;9.792;2023-04-03T00:49:22;12.60;;;8.90;;
51296;SDS011;37380;45.186;9.792;2023-04-03T00:51:49;13.27;;;8.48;;
51296;SDS011;37380;45.186;9.792;2023-04-03T00:54:24;19.55;;;9.10;;
51296;SDS011;37380;45.186;9.792;2023-04-03T00:57:26;9.50;;;8.65;;
51296;SDS011;37380;45.186;9.792;2023-04-03T01:00:21;15.23;;;8.82;;
51296;SDS011;37380;45.186;9.792;2023-04-03T01:02:50;20.05;;;9.95;;
51296;SDS011;37380;45.186;9.792;2023-04-03T01:05:18;10.25;;;8.95;;
51296;SDS011;37380;45.186;9.792;2023-04-03T01:07:47;20.35;;;10.63;;
51296;SDS011;37380;45.186;9.792;2023-04-03T01:10:16;12.02;;;9.32;;
51296;SDS011;37380;45.186;9.792;2023-04-03T01:13:17;12.25;;;8.30;;
51296;SDS011;37380;45.186;9.792;2023-04-03T01:16:06;9.93;;;8.93;;
51296;SDS011;37380;45.186;9.792;2023-04-03T01:18:35;21.83;;;9.30;;
51296;SDS011;37380;45.186;9.792;2023-04-03T01:24:28;12.63;;;9.27;;
51296;SDS011;37380;45.186;9.792;2023-04-03T01:27:03;17.33;;;8.95;;
51296;SDS011;37380;45.186;9.792;2023-04-03T01:29:32;14.38;;;10.82;;
51296;SDS011;37380;45.186;9.792;2023-04-03T01:32:00;12.15;;;10.55;;
51296;SDS011;37380;45.186;9.792;2023-04-03T01:34:29;10.23;;;8.77;;
51296;SDS011;37380;45.186;9.792;2023-04-03T01:36:57;12.15;;;9.52;;
51296;SDS011;37380;45.186;9.792;2023-04-03T01:39:24;8.73;;;7.97;;
51296;SDS011;37380;45.186;9.792;2023-04-03T01:41:51;12.35;;;9.93;;
51296;SDS011;37380;45.186;9.792;2023-04-03T01:44:32;10.75;;;8.82;;
51296;SDS011;37380;45.186;9.792;2023-04-03T01:46:59;13.18;;;10.18;;
51296;SDS011;37380;45.186;9.792;2023-04-03T01:49:28;11.57;;;8.68;;
51296;SDS011;37380;45.186;9.792;2023-04-03T01:51:56;12.50;;;9.52;;
51296;SDS011;37380;45.186;9.792;2023-04-03T01:54:29;17.17;;;10.15;;
51296;SDS011;37380;45.186;9.792;2023-04-03T01:57:23;10.77;;;9.88;;
51296;SDS011;37380;45.186;9.792;2023-04-03T01:59:52;16.05;;;10.07;;
51296;SDS011;37380;45.186;9.792;2023-04-03T02:02:19;11.38;;;9.35;;
51296;SDS011;37380;45.186;9.792;2023-04-03T02:04:46;23.77;;;9.98;;
51296;SDS011;37380;45.186;9.792;2023-04-03T02:07:14;14.90;;;11.05;;
51296;SDS011;37380;45.186;9.792;2023-04-03T02:09:41;25.02;;;11.68;;
51296;SDS011;37380;45.186;9.792;2023-04-03T02:12:08;12.05;;;10.52;;
51296;SDS011;37380;45.186;9.792;2023-04-03T02:14:35;10.63;;;9.20;;
51296;SDS011;37380;45.186;9.792;2023-04-03T02:17:02;22.77;;;10.88;;
51296;SDS011;37380;45.186;9.792;2023-04-03T02:19:31;27.58;;;10.65;;
51296;SDS011;37380;45.186;9.792;2023-04-03T02:21:58;14.52;;;8.77;;
51296;SDS011;37380;45.186;9.792;2023-04-03T02:24:25;16.52;;;9.23;;
51296;SDS011;37380;45.186;9.792;2023-04-03T02:26:52;11.38;;;9.35;;
51296;SDS011;37380;45.186;9.792;2023-04-03T02:29:19;12.90;;;11.38;;
51296;SDS011;37380;45.186;9.792;2023-04-03T02:31:47;13.07;;;11.75;;
51296;SDS011;37380;45.186;9.792;2023-04-03T02:34:14;16.80;;;11.07;;
51296;SDS011;37380;45.186;9.792;2023-04-03T02:36:42;17.67;;;11.32;;
51296;SDS011;37380;45.186;9.792;2023-04-03T02:39:10;13.40;;;9.77;;
51296;SDS011;37380;45.186;9.792;2023-04-03T02:41:37;12.60;;;10.77;;
51296;SDS011;37380;45.186;9.792;2023-04-03T02:44:10;11.98;;;10.77;;
51296;SDS011;37380;45.186;9.792;2023-04-03T02:46:38;10.45;;;9.43;;
51296;SDS011;37380;45.186;9.792;2023-04-03T02:49:06;13.65;;;10.75;;
51296;SDS011;37380;45.186;9.792;2023-04-03T02:51:33;14.00;;;10.35;;
51296;SDS011;37380;45.186;9.792;2023-04-03T02:54:06;15.95;;;10.32;;
51296;SDS011;37380;45.186;9.792;2023-04-03T02:57:08;14.05;;;11.98;;
51296;SDS011;37380;45.186;9.792;2023-04-03T03:00:03;16.20;;;12.55;;
51296;SDS011;37380;45.186;9.792;2023-04-03T03:02:30;14.93;;;12.63;;
51296;SDS011;37380;45.186;9.792;2023-04-03T03:04:57;16.15;;;10.52;;
51296;SDS011;37380;45.186;9.792;2023-04-03T03:07:24;19.42;;;8.30;;
51296;SDS011;37380;45.186;9.792;2023-04-03T03:09:51;10.95;;;9.15;;
51296;SDS011;37380;45.186;9.792;2023-04-03T03:12:18;13.68;;;10.07;;
51296;SDS011;37380;45.186;9.792;2023-04-03T03:14:48;15.00;;;10.60;;
51296;SDS011;37380;45.186;9.792;2023-04-03T03:17:16;11.52;;;10.35;;
51296;SDS011;37380;45.186;9.792;2023-04-03T03:19:43;20.05;;;11.00;;
51296;SDS011;37380;45.186;9.792;2023-04-03T03:22:12;11.07;;;9.98;;
51296;SDS011;37380;45.186;9.792;2023-04-03T03:24:39;18.60;;;11.55;;
51296;SDS011;37380;45.186;9.792;2023-04-03T03:27:06;19.55;;;11.30;;
51296;SDS011;37380;45.186;9.792;2023-04-03T03:29:33;12.00;;;10.57;;
51296;SDS011;37380;45.186;9.792;2023-04-03T03:32:02;15.50;;;10.57;;
51296;SDS011;37380;45.186;9.792;2023-04-03T03:34:29;13.02;;;11.27;;
51296;SDS011;37380;45.186;9.792;2023-04-03T03:36:56;18.02;;;11.20;;
51296;SDS011;37380;45.186;9.792;2023-04-03T03:39:23;16.50;;;13.13;;
51296;SDS011;37380;45.186;9.792;2023-04-03T03:41:51;17.50;;;13.65;;
51296;SDS011;37380;45.186;9.792;2023-04-03T03:44:20;14.05;;;12.63;;
51296;SDS011;37380;45.186;9.792;2023-04-03T03:46:47;16.63;;;11.77;;
51296;SDS011;37380;45.186;9.792;2023-04-03T03:49:14;19.77;;;11.48;;
51296;SDS011;37380;45.186;9.792;2023-04-03T03:51:42;17.10;;;12.43;;
51296;SDS011;37380;45.186;9.792;2023-04-03T03:54:15;12.30;;;11.10;;
51296;SDS011;37380;45.186;9.792;2023-04-03T03:57:09;10.23;;;8.13;;
51296;SDS011;37380;45.186;9.792;2023-04-03T03:59:37;10.63;;;9.50;;
51296;SDS011;37380;45.186;9.792;2023-04-03T04:02:04;18.10;;;9.05;;
51296;SDS011;37380;45.186;9.792;2023-04-03T04:04:32;20.90;;;11.13;;
51296;SDS011;37380;45.186;9.792;2023-04-03T04:06:59;35.13;;;10.68;;
51296;SDS011;37380;45.186;9.792;2023-04-03T04:09:27;12.73;;;10.98;;
51296;SDS011;37380;45.186;9.792;2023-04-03T04:11:55;9.63;;;8.13;;
51296;SDS011;37380;45.186;9.792;2023-04-03T04:14:22;23.45;;;10.05;;
51296;SDS011;37380;45.186;9.792;2023-04-03T04:16:50;13.45;;;11.40;;
51296;SDS011;37380;45.186;9.792;2023-04-03T04:19:22;18.15;;;9.85;;
51296;SDS011;37380;45.186;9.792;2023-04-03T04:21:49;10.38;;;9.43;;
51296;SDS011;37380;45.186;9.792;2023-04-03T04:24:17;13.75;;;11.75;;
51296;SDS011;37380;45.186;9.792;2023-04-03T04:26:45;10.60;;;9.57;;
51296;SDS011;37380;45.186;9.792;2023-04-03T04:29:14;12.82;;;11.50;;
51296;SDS011;37380;45.186;9.792;2023-04-03T04:31:43;22.27;;;11.85;;
51296;SDS011;37380;45.186;9.792;2023-04-03T04:34:10;11.98;;;10.18;;
51296;SDS011;37380;45.186;9.792;2023-04-03T04:36:39;14.43;;;9.88;;
51296;SDS011;37380;45.186;9.792;2023-04-03T04:39:06;13.88;;;12.02;;
51296;SDS011;37380;45.186;9.792;2023-04-03T04:41:34;12.13;;;10.30;;
51296;SDS011;37380;45.186;9.792;2023-04-03T04:44:03;18.83;;;10.00;;
51296;SDS011;37380;45.186;9.792;2023-04-03T04:46:31;23.55;;;11.02;;
51296;SDS011;37380;45.186;9.792;2023-04-03T04:48:59;12.10;;;10.48;;
51296;SDS011;37380;45.186;9.792;2023-04-03T04:51:29;17.02;;;10.93;;
51296;SDS011;37380;45.186;9.792;2023-04-03T04:54:22;13.38;;;10.73;;
51296;SDS011;37380;45.186;9.792;2023-04-03T04:57:23;24.20;;;11.90;;
51296;SDS011;37380;45.186;9.792;2023-04-03T05:00:17;15.63;;;11.48;;
51296;SDS011;37380;45.186;9.792;2023-04-03T05:02:45;22.92;;;10.77;;
51296;SDS011;37380;45.186;9.792;2023-04-03T05:05:12;23.35;;;11.95;;
51296;SDS011;37380;45.186;9.792;2023-04-03T05:07:40;19.30;;;11.63;;
51296;SDS011;37380;45.186;9.792;2023-04-03T05:10:08;16.17;;;12.13;;
51296;SDS011;37380;45.186;9.792;2023-04-03T05:12:44;17.45;;;12.40;;
51296;SDS011;37380;45.186;9.792;2023-04-03T05:15:46;22.15;;;12.40;;
51296;SDS011;37380;45.186;9.792;2023-04-03T05:18:47;13.77;;;12.23;;
51296;SDS011;37380;45.186;9.792;2023-04-03T05:21:29;34.05;;;11.18;;
51296;SDS011;37380;45.186;9.792;2023-04-03T05:24:03;24.00;;;11.15;;
51296;SDS011;37380;45.186;9.792;2023-04-03T05:26:33;14.90;;;10.13;;
51296;SDS011;37380;45.186;9.792;2023-04-03T05:29:01;10.80;;;9.88;;
51296;SDS011;37380;45.186;9.792;2023-04-03T05:31:29;23.42;;;11.35;;
51296;SDS011;37380;45.186;9.792;2023-04-03T05:33:57;16.25;;;8.52;;
51296;SDS011;37380;45.186;9.792;2023-04-03T05:36:26;10.80;;;9.40;;
51296;SDS011;37380;45.186;9.792;2023-04-03T05:39:05;12.75;;;9.52;;
51296;SDS011;37380;45.186;9.792;2023-04-03T05:42:00;14.43;;;8.77;;
51296;SDS011;37380;45.186;9.792;2023-04-03T05:44:54;16.73;;;8.57;;
51296;SDS011;37380;45.186;9.792;2023-04-03T05:47:22;22.23;;;9.93;;
51296;SDS011;37380;45.186;9.792;2023-04-03T05:49:49;10.30;;;8.52;;
51296;SDS011;37380;45.186;9.792;2023-04-03T05:52:26;21.15;;;8.95;;
51296;SDS011;37380;45.186;9.792;2023-04-03T05:55:02;16.75;;;9.82;;
51296;SDS011;37380;45.186;9.792;2023-04-03T05:58:04;19.77;;;8.18;;
51296;SDS011;37380;45.186;9.792;2023-04-03T06:01:06;10.57;;;8.05;;
51296;SDS011;37380;45.186;9.792;2023-04-03T06:04:02;15.77;;;8.57;;
51296;SDS011;37380;45.186;9.792;2023-04-03T06:07:03;16.80;;;6.70;;
51296;SDS011;37380;45.186;9.792;2023-04-03T06:09:26;8.73;;;6.60;;
51296;SDS011;37380;45.186;9.792;2023-04-03T06:11:56;13.77;;;9.30;;
51296;SDS011;37380;45.186;9.792;2023-04-03T06:14:28;16.83;;;9.20;;
51296;SDS011;37380;45.186;9.792;2023-04-03T06:16:55;12.13;;;10.77;;
51296;SDS011;37380;45.186;9.792;2023-04-03T06:19:22;20.15;;;9.63;;
51296;SDS011;37380;45.186;9.792;2023-04-03T06:21:54;12.95;;;10.18;;
51296;SDS011;37380;45.186;9.792;2023-04-03T06:24:23;25.35;;;10.27;;
51296;SDS011;37380;45.186;9.792;2023-04-03T06:26:52;10.07;;;8.70;;
51296;SDS011;37380;45.186;9.792;2023-04-03T06:29:19;21.98;;;10.20;;
51296;SDS011;37380;45.186;9.792;2023-04-03T06:31:47;19.25;;;9.43;;
51296;SDS011;37380;45.186;9.792;2023-04-03T06:34:15;29.67;;;9.65;;
51296;SDS011;37380;45.186;9.792;2023-04-03T06:36:42;17.15;;;9.48;;
51296;SDS011;37380;45.186;9.792;2023-04-03T06:39:13;18.25;;;9.30;;
51296;SDS011;37380;45.186;9.792;2023-04-03T06:41:49;21.60;;;9.40;;
51296;SDS011;37380;45.186;9.792;2023-04-03T06:44:50;23.42;;;9.10;;
51296;SDS011;37380;45.186;9.792;2023-04-03T06:47:17;16.63;;;8.80;;
51296;SDS011;37380;45.186;9.792;2023-04-03T06:49:44;26.77;;;12.18;;
51296;SDS011;37380;45.186;9.792;2023-04-03T06:52:18;24.85;;;10.90;;
51296;SDS011;37380;45.186;9.792;2023-04-03T06:55:19;12.55;;;9.43;;
51296;SDS011;37380;45.186;9.792;2023-04-03T06:58:14;10.93;;;8.82;;
51296;SDS011;37380;45.186;9.792;2023-04-03T07:00:48;10.48;;;9.40;;
51296;SDS011;37380;45.186;9.792;2023-04-03T07:03:49;14.45;;;9.25;;
51296;SDS011;37380;45.186;9.792;2023-04-03T07:06:43;13.18;;;10.10;;
51296;SDS011;37380;45.186;9.792;2023-04-03T07:09:11;14.85;;;10.20;;
51296;SDS011;37380;45.186;9.792;2023-04-03T07:11:38;30.25;;;10.00;;
51296;SDS011;37380;45.186;9.792;2023-04-03T07:14:11;15.95;;;9.77;;
51296;SDS011;37380;45.186;9.792;2023-04-03T07:17:05;24.27;;;9.73;;
51296;SDS011;37380;45.186;9.792;2023-04-03T07:19:32;13.38;;;8.98;;
51296;SDS011;37380;45.186;9.792;2023-04-03T07:21:59;14.48;;;9.88;;
51296;SDS011;37380;45.186;9.792;2023-04-03T07:24:26;26.65;;;9.93;;
51296;SDS011;37380;45.186;9.792;2023-04-03T07:26:53;19.50;;;9.50;;
51296;SDS011;37380;45.186;9.792;2023-04-03T07:29:20;20.63;;;8.85;;
51296;SDS011;37380;45.186;9.792;2023-04-03T07:31:48;18.08;;;10.52;;
51296;SDS011;37380;45.186;9.792;2023-04-03T07:34:16;12.18;;;8.60;;
51296;SDS011;37380;45.186;9.792;2023-04-03T07:36:43;16.65;;;8.68;;
51296;SDS011;37380;45.186;9.792;2023-04-03T07:39:09;11.63;;;10.48;;
51296;SDS011;37380;45.186;9.792;2023-04-03T07:41:44;12.07;;;8.95;;
51296;SDS011;37380;45.186;9.792;2023-04-03T07:44:45;16.52;;;7.65;;
51296;SDS011;37380;45.186;9.792;2023-04-03T07:47:39;11.05;;;8.73;;
51296;SDS011;37380;45.186;9.792;2023-04-03T07:50:07;10.68;;;8.98;;
51296;SDS011;37380;45.186;9.792;2023-04-03T07:52:34;12.45;;;7.65;;
51296;SDS011;37380;45.186;9.792;2023-04-03T07:55:07;11.10;;;7.15;;
51296;SDS011;37380;45.186;9.792;2023-04-03T07:57:54;18.40;;;8.95;;
51296;SDS011;37380;45.186;9.792;2023-04-03T08:00:22;10.02;;;6.65;;
51296;SDS011;37380;45.186;9.792;2023-04-03T08:02:49;11.07;;;7.72;;
51296;SDS011;37380;45.186;9.792;2023-04-03T08:05:18;13.30;;;8.95;;
51296;SDS011;37380;45.186;9.792;2023-04-03T08:07:46;14.57;;;7.50;;
51296;SDS011;37380;45.186;9.792;2023-04-03T08:10:14;23.02;;;7.75;;
51296;SDS011;37380;45.186;9.792;2023-04-03T08:12:41;12.10;;;7.22;;
51296;SDS011;37380;45.186;9.792;2023-04-03T08:15:09;15.02;;;6.43;;
51296;SDS011;37380;45.186;9.792;2023-04-03T08:17:36;9.25;;;7.97;;
51296;SDS011;37380;45.186;9.792;2023-04-03T08:20:06;10.25;;;7.65;;
51296;SDS011;37380;45.186;9.792;2023-04-03T08:22:34;16.67;;;7.45;;
51296;SDS011;37380;45.186;9.792;2023-04-03T08:25:01;6.88;;;6.18;;
51296;SDS011;37380;45.186;9.792;2023-04-03T08:27:28;5.85;;;5.10;;
51296;SDS011;37380;45.186;9.792;2023-04-03T08:29:56;6.45;;;5.80;;
51296;SDS011;37380;45.186;9.792;2023-04-03T08:32:23;7.90;;;5.78;;
51296;SDS011;37380;45.186;9.792;2023-04-03T08:34:50;10.32;;;6.03;;
51296;SDS011;37380;45.186;9.792;2023-04-03T08:37:18;6.60;;;5.72;;
51296;SDS011;37380;45.186;9.792;2023-04-03T08:39:45;10.45;;;5.22;;
51296;SDS011;37380;45.186;9.792;2023-04-03T08:48:42;5.68;;;5.05;;
51296;SDS011;37380;45.186;9.792;2023-04-03T08:51:12;7.38;;;3.95;;
51296;SDS011;37380;45.186;9.792;2023-04-03T08:54:24;4.85;;;4.03;;
51296;SDS011;37380;45.186;9.792;2023-04-03T09:00:06;5.85;;;4.15;;
51296;SDS011;37380;45.186;9.792;2023-04-03T09:02:44;12.52;;;3.72;;
51296;SDS011;37380;45.186;9.792;2023-04-03T09:05:17;4.47;;;3.63;;
51296;SDS011;37380;45.186;9.792;2023-04-03T09:08:09;8.20;;;3.95;;
51296;SDS011;37380;45.186;9.792;2023-04-03T09:10:45;8.48;;;3.35;;
51296;SDS011;37380;45.186;9.792;2023-04-03T09:13:33;5.03;;;3.17;;
51296;SDS011;37380;45.186;9.792;2023-04-03T09:16:04;3.13;;;2.70;;
51296;SDS011;37380;45.186;9.792;2023-04-03T09:18:46;7.40;;;2.83;;
51296;SDS011;37380;45.186;9.792;2023-04-03T09:21:26;4.07;;;2.47;;
51296;SDS011;37380;45.186;9.792;2023-04-03T09:23:58;3.50;;;2.65;;
51296;SDS011;37380;45.186;9.792;2023-04-03T09:26:33;6.70;;;2.80;;
51296;SDS011;37380;45.186;9.792;2023-04-03T09:29:05;7.75;;;3.67;;
51296;SDS011;37380;45.186;9.792;2023-04-03T09:31:41;5.10;;;3.17;;
51296;SDS011;37380;45.186;9.792;2023-04-03T09:36:54;2.88;;;2.55;;
51296;SDS011;37380;45.186;9.792;2023-04-03T09:39:26;10.30;;;5.20;;
51296;SDS011;37380;45.186;9.792;2023-04-03T09:42:05;3.63;;;2.20;;
51296;SDS011;37380;45.186;9.792;2023-04-03T09:45:26;7.63;;;2.90;;
51296;SDS011;37380;45.186;9.792;2023-04-03T09:48:25;5.47;;;2.95;;
51296;SDS011;37380;45.186;9.792;2023-04-03T09:50:56;3.70;;;3.25;;
51296;SDS011;37380;45.186;9.792;2023-04-03T09:56:30;3.65;;;2.13;;
51296;SDS011;37380;45.186;9.792;2023-04-03T10:06:37;6.67;;;3.13;;
51296;SDS011;37380;45.186;9.792;2023-04-03T10:09:36;3.28;;;2.20;;
51296;SDS011;37380;45.186;9.792;2023-04-03T10:12:06;3.95;;;3.35;;
51296;SDS011;37380;45.186;9.792;2023-04-03T10:14:39;11.95;;;3.90;;
51296;SDS011;37380;45.186;9.792;2023-04-03T10:19:50;6.80;;;2.10;;
51296;SDS011;37380;45.186;9.792;2023-04-03T10:39:32;4.78;;;2.58;;
51296;SDS011;37380;45.186;9.792;2023-04-03T10:45:51;5.55;;;1.50;;
51296;SDS011;37380;45.186;9.792;2023-04-03T10:53:44;2.13;;;1.98;;
51296;SDS011;37380;45.186;9.792;2023-04-03T10:56:56;4.32;;;1.73;;
51296;SDS011;37380;45.186;9.792;2023-04-03T11:00:07;2.03;;;1.90;;
51296;SDS011;37380;45.186;9.792;2023-04-03T11:02:50;3.25;;;2.40;;
51296;SDS011;37380;45.186;9.792;2023-04-03T11:11:16;5.53;;;1.67;;
51296;SDS011;37380;45.186;9.792;2023-04-03T11:16:36;2.78;;;1.60;;
51296;SDS011;37380;45.186;9.792;2023-04-03T11:19:21;3.42;;;2.08;;
51296;SDS011;37380;45.186;9.792;2023-04-03T11:22:03;5.18;;;3.20;;
51296;SDS011;37380;45.186;9.792;2023-04-03T11:24:38;9.35;;;2.20;;
51296;SDS011;37380;45.186;9.792;2023-04-03T11:27:14;3.58;;;1.58;;
51296;SDS011;37380;45.186;9.792;2023-04-03T11:29:49;2.78;;;1.80;;
51296;SDS011;37380;45.186;9.792;2023-04-03T11:32:34;3.13;;;2.15;;
51296;SDS011;37380;45.186;9.792;2023-04-03T11:35:16;3.05;;;1.67;;
51296;SDS011;37380;45.186;9.792;2023-04-03T11:37:46;1.65;;;1.55;;
51296;SDS011;37380;45.186;9.792;2023-04-03T11:43:34;2.05;;;1.90;;
51296;SDS011;37380;45.186;9.792;2023-04-03T11:46:08;1.65;;;1.52;;
51296;SDS011;37380;45.186;9.792;2023-04-03T11:53:53;3.95;;;1.77;;
51296;SDS011;37380;45.186;9.792;2023-04-03T11:56:54;1.55;;;1.45;;
51296;SDS011;37380;45.186;9.792;2023-04-03T11:59:49;5.63;;;4.53;;
51296;SDS011;37380;45.186;9.792;2023-04-03T12:02:37;1.85;;;1.50;;
51296;SDS011;37380;45.186;9.792;2023-04-03T12:05:27;3.15;;;1.27;;
51296;SDS011;37380;45.186;9.792;2023-04-03T12:13:37;8.48;;;1.77;;
51296;SDS011;37380;45.186;9.792;2023-04-03T12:19:37;2.35;;;1.70;;
51296;SDS011;37380;45.186;9.792;2023-04-03T12:22:11;2.53;;;1.52;;
51296;SDS011;37380;45.186;9.792;2023-04-03T12:24:44;2.07;;;1.77;;
51296;SDS011;37380;45.186;9.792;2023-04-03T12:27:21;5.22;;;1.70;;
51296;SDS011;37380;45.186;9.792;2023-04-03T12:33:04;3.85;;;1.63;;
51296;SDS011;37380;45.186;9.792;2023-04-03T12:41:17;12.63;;;2.28;;
51296;SDS011;37380;45.186;9.792;2023-04-03T12:46:49;5.18;;;2.38;;
51296;SDS011;37380;45.186;9.792;2023-04-03T12:49:38;7.28;;;2.95;;
51296;SDS011;37380;45.186;9.792;2023-04-03T12:52:37;2.08;;;1.48;;
51296;SDS011;37380;45.186;9.792;2023-04-03T12:55:15;5.40;;;2.10;;
51296;SDS011;37380;45.186;9.792;2023-04-03T13:01:21;1.42;;;1.10;;
51296;SDS011;37380;45.186;9.792;2023-04-03T13:03:52;1.77;;;1.67;;
51296;SDS011;37380;45.186;9.792;2023-04-03T13:08:54;5.72;;;2.45;;
51296;SDS011;37380;45.186;9.792;2023-04-03T13:11:33;3.13;;;1.60;;
51296;SDS011;37380;45.186;9.792;2023-04-03T13:14:37;1.75;;;1.00;;
51296;SDS011;37380;45.186;9.792;2023-04-03T13:17:39;5.15;;;1.83;;
51296;SDS011;37380;45.186;9.792;2023-04-03T13:20:42;1.67;;;1.30;;
51296;SDS011;37380;45.186;9.792;2023-04-03T13:23:38;7.13;;;2.25;;
51296;SDS011;37380;45.186;9.792;2023-04-03T13:26:08;17.20;;;2.00;;
51296;SDS011;37380;45.186;9.792;2023-04-03T13:28:37;2.72;;;2.22;;
51296;SDS011;37380;45.186;9.792;2023-04-03T13:34:05;9.23;;;2.00;;
51296;SDS011;37380;45.186;9.792;2023-04-03T13:36:41;3.15;;;2.20;;
51296;SDS011;37380;45.186;9.792;2023-04-03T13:41:40;6.90;;;2.00;;
51296;SDS011;37380;45.186;9.792;2023-04-03T13:47:21;2.20;;;1.70;;
51296;SDS011;37380;45.186;9.792;2023-04-03T13:50:00;2.72;;;2.53;;
51296;SDS011;37380;45.186;9.792;2023-04-03T13:53:13;2.53;;;1.48;;
51296;SDS011;37380;45.186;9.792;2023-04-03T13:56:19;4.93;;;2.03;;
51296;SDS011;37380;45.186;9.792;2023-04-03T14:06:54;6.53;;;1.92;;
51296;SDS011;37380;45.186;9.792;2023-04-03T14:09:22;3.10;;;1.85;;
51296;SDS011;37380;45.186;9.792;2023-04-03T14:12:02;12.32;;;2.72;;
51296;SDS011;37380;45.186;9.792;2023-04-03T14:15:18;7.47;;;2.05;;
51296;SDS011;37380;45.186;9.792;2023-04-03T14:17:57;10.32;;;2.42;;
51296;SDS011;37380;45.186;9.792;2023-04-03T14:20:54;3.03;;;1.55;;
51296;SDS011;37380;45.186;9.792;2023-04-03T14:23:48;6.28;;;1.73;;
51296;SDS011;37380;45.186;9.792;2023-04-03T14:26:16;8.02;;;2.20;;
51296;SDS011;37380;45.186;9.792;2023-04-03T14:28:48;4.43;;;1.90;;
51296;SDS011;37380;45.186;9.792;2023-04-03T14:31:17;8.52;;;2.25;;
51296;SDS011;37380;45.186;9.792;2023-04-03T14:33:45;6.90;;;2.28;;
51296;SDS011;37380;45.186;9.792;2023-04-03T14:36:16;10.45;;;2.50;;
51296;SDS011;37380;45.186;9.792;2023-04-03T14:38:44;4.72;;;1.65;;
51296;SDS011;37380;45.186;9.792;2023-04-03T14:41:13;12.45;;;1.52;;
51296;SDS011;37380;45.186;9.792;2023-04-03T14:43:49;5.72;;;1.95;;
51296;SDS011;37380;45.186;9.792;2023-04-03T14:46:44;12.38;;;2.03;;
51296;SDS011;37380;45.186;9.792;2023-04-03T14:49:26;14.65;;;2.20;;
51296;SDS011;37380;45.186;9.792;2023-04-03T14:51:56;6.30;;;2.40;;
51296;SDS011;37380;45.186;9.792;2023-04-03T14:54:31;8.93;;;2.33;;
51296;SDS011;37380;45.186;9.792;2023-04-03T14:57:32;6.93;;;1.38;;
51296;SDS011;37380;45.186;9.792;2023-04-03T15:00:26;8.60;;;2.13;;
51296;SDS011;37380;45.186;9.792;2023-04-03T15:02:53;2.83;;;1.40;;
51296;SDS011;37380;45.186;9.792;2023-04-03T15:05:20;13.30;;;2.38;;
51296;SDS011;37380;45.186;9.792;2023-04-03T15:07:52;11.65;;;1.90;;
51296;SDS011;37380;45.186;9.792;2023-04-03T15:10:26;5.38;;;1.63;;
51296;SDS011;37380;45.186;9.792;2023-04-03T15:12:54;13.40;;;1.90;;
51296;SDS011;37380;45.186;9.792;2023-04-03T15:15:29;2.90;;;1.35;;
51296;SDS011;37380;45.186;9.792;2023-04-03T15:18:30;2.85;;;1.95;;
51296;SDS011;37380;45.186;9.792;2023-04-03T15:21:31;7.82;;;1.67;;
51296;SDS011;37380;45.186;9.792;2023-04-03T15:23:58;7.18;;;2.45;;
51296;SDS011;37380;45.186;9.792;2023-04-03T15:26:27;7.93;;;2.38;;
51296;SDS011;37380;45.186;9.792;2023-04-03T15:28:54;2.53;;;1.77;;
51296;SDS011;37380;45.186;9.792;2023-04-03T15:31:22;4.05;;;1.92;;
51296;SDS011;37380;45.186;9.792;2023-04-03T15:33:49;2.95;;;1.92;;
51296;SDS011;37380;45.186;9.792;2023-04-03T15:36:16;2.28;;;1.75;;
51296;SDS011;37380;45.186;9.792;2023-04-03T15:39:00;3.63;;;1.77;;
51296;SDS011;37380;45.186;9.792;2023-04-03T15:41:27;4.93;;;2.03;;
51296;SDS011;37380;45.186;9.792;2023-04-03T15:43:54;3.08;;;1.60;;
51296;SDS011;37380;45.186;9.792;2023-04-03T15:46:21;2.65;;;1.60;;
51296;SDS011;37380;45.186;9.792;2023-04-03T15:48:49;5.35;;;1.90;;
51296;SDS011;37380;45.186;9.792;2023-04-03T15:51:16;12.90;;;1.95;;
51296;SDS011;37380;45.186;9.792;2023-04-03T15:53:50;6.20;;;2.20;;
51296;SDS011;37380;45.186;9.792;2023-04-03T15:56:51;10.32;;;1.70;;
51296;SDS011;37380;45.186;9.792;2023-04-03T15:59:53;3.63;;;1.38;;
51296;SDS011;37380;45.186;9.792;2023-04-03T16:02:40;8.38;;;1.80;;
51296;SDS011;37380;45.186;9.792;2023-04-03T16:05:09;4.72;;;1.75;;
51296;SDS011;37380;45.186;9.792;2023-04-03T16:07:44;5.03;;;1.55;;
51296;SDS011;37380;45.186;9.792;2023-04-03T16:10:39;2.38;;;1.73;;
51296;SDS011;37380;45.186;9.792;2023-04-03T16:13:06;2.75;;;1.85;;
51296;SDS011;37380;45.186;9.792;2023-04-03T16:15:34;2.75;;;1.50;;
51296;SDS011;37380;45.186;9.792;2023-04-03T16:18:09;11.00;;;1.95;;
51296;SDS011;37380;45.186;9.792;2023-04-03T16:21:12;10.85;;;2.00;;
51296;SDS011;37380;45.186;9.792;2023-04-03T16:24:07;4.70;;;1.88;;
51296;SDS011;37380;45.186;9.792;2023-04-03T16:26:35;13.68;;;1.90;;
51296;SDS011;37380;45.186;9.792;2023-04-03T16:29:02;4.55;;;2.58;;
51296;SDS011;37380;45.186;9.792;2023-04-03T16:31:29;5.28;;;2.10;;
51296;SDS011;37380;45.186;9.792;2023-04-03T16:34:00;22.33;;;1.95;;
51296;SDS011;37380;45.186;9.792;2023-04-03T16:36:27;8.13;;;2.38;;
51296;SDS011;37380;45.186;9.792;2023-04-03T16:38:55;6.03;;;1.60;;
51296;SDS011;37380;45.186;9.792;2023-04-03T16:41:22;4.07;;;2.08;;
51296;SDS011;37380;45.186;9.792;2023-04-03T16:43:48;12.05;;;1.30;;
51296;SDS011;37380;45.186;9.792;2023-04-03T16:46:17;5.38;;;1.90;;
51296;SDS011;37380;45.186;9.792;2023-04-03T16:48:44;7.30;;;2.22;;
51296;SDS011;37380;45.186;9.792;2023-04-03T16:51:12;7.85;;;1.95;;
51296;SDS011;37380;45.186;9.792;2023-04-03T16:53:46;7.88;;;1.85;;
51296;SDS011;37380;45.186;9.792;2023-04-03T16:56:48;6.13;;;1.42;;
51296;SDS011;37380;45.186;9.792;2023-04-03T16:59:42;3.08;;;1.02;;
51296;SDS011;37380;45.186;9.792;2023-04-03T17:02:09;1.77;;;1.20;;
51296;SDS011;37380;45.186;9.792;2023-04-03T17:04:36;5.97;;;1.50;;
51296;SDS011;37380;45.186;9.792;2023-04-03T17:07:03;1.65;;;0.90;;
51296;SDS011;37380;45.186;9.792;2023-04-03T17:09:39;3.22;;;1.73;;
51296;SDS011;37380;45.186;9.792;2023-04-03T17:12:33;2.45;;;1.10;;
51296;SDS011;37380;45.186;9.792;2023-04-03T17:15:00;1.88;;;1.25;;
51296;SDS011;37380;45.186;9.792;2023-04-03T17:17:37;3.17;;;1.40;;